createdAt,value
2017-04-24T00:49:36.786Z,101708
2017-04-24T00:50:37.772Z,101704
2017-04-24T00:51:38.463Z,101700
2017-04-24T00:52:39.747Z,101696
2017-04-24T00:53:42.720Z,101704
2017-04-24T00:54:44.111Z,101705
2017-04-24T00:55:51.040Z,101696
2017-04-24T00:56:56.482Z,101694
2017-04-24T00:58:00.926Z,101697
2017-04-24T00:59:03.490Z,101692
2017-04-24T01:00:03.937Z,101696
2017-04-24T01:01:05.660Z,101689
2017-04-24T01:02:05.979Z,101689
2017-04-24T01:03:07.870Z,101681
2017-04-24T01:04:12.180Z,101689
2017-04-24T01:05:15.687Z,101693
2017-04-24T01:06:16.453Z,101694
2017-04-24T01:07:19.366Z,101686
2017-04-24T01:08:19.681Z,101686
2017-04-24T01:09:23.980Z,101680
2017-04-24T01:10:25.003Z,101680
2017-04-24T01:11:28.511Z,101679
2017-04-24T01:12:29.990Z,101681
2017-04-24T01:13:31.692Z,101681
2017-04-24T01:14:33.358Z,101679
2017-04-24T01:15:36.089Z,101672
2017-04-24T01:16:36.997Z,101679
2017-04-24T01:17:40.318Z,101667
2017-04-24T01:18:42.310Z,101678
2017-04-24T01:19:42.998Z,101675
2017-04-24T01:20:47.347Z,101660
2017-04-24T01:21:48.345Z,101666
2017-04-24T01:22:50.130Z,101666
2017-04-24T01:23:55.388Z,101658
2017-04-24T01:24:58.153Z,101654
2017-04-24T01:25:58.394Z,101652
2017-04-24T01:26:59.646Z,101659
2017-04-24T01:28:01.273Z,101653
2017-04-24T01:29:05.285Z,101653
2017-04-24T01:30:12.156Z,101655
2017-04-24T01:31:13.914Z,101648
2017-04-24T01:32:16.075Z,101658
2017-04-24T01:33:20.782Z,101656
2017-04-24T01:34:21.051Z,101655
2017-04-24T01:35:23.318Z,101652
2017-04-24T01:36:23.556Z,101653
2017-04-24T01:37:24.057Z,101648
2017-04-24T01:38:25.043Z,101642
2017-04-24T01:39:25.869Z,101641
2017-04-24T01:40:26.864Z,101637
2017-04-24T01:41:28.403Z,101645
2017-04-24T01:42:31.383Z,101636
2017-04-24T01:43:34.464Z,101643
2017-04-24T01:44:35.522Z,101640
2017-04-24T01:45:37.324Z,101641
2017-04-24T01:46:42.150Z,101641
2017-04-24T01:47:42.886Z,101631
2017-04-24T01:48:46.576Z,101624
2017-04-24T01:49:47.183Z,101635
2017-04-24T01:50:52.189Z,101628
2017-04-24T01:51:53.948Z,101621
2017-04-24T01:52:56.463Z,101619
2017-04-24T01:53:56.772Z,101624
2017-04-24T01:55:01.223Z,101619
2017-04-24T01:56:04.991Z,101618
2017-04-24T01:57:08.965Z,101613
2017-04-24T01:58:15.828Z,101617
2017-04-24T01:59:17.866Z,101608
2017-04-24T02:00:21.670Z,101606
2017-04-24T02:01:24.498Z,101605
2017-04-24T02:02:26.395Z,101595
2017-04-24T02:03:35.205Z,101594
2017-04-24T02:04:36.541Z,101594
2017-04-24T02:05:39.388Z,101589
2017-04-24T02:06:41.727Z,101598
2017-04-24T02:07:47.767Z,101591
2017-04-24T02:08:50.505Z,101584
2017-04-24T02:09:54.455Z,101580
2017-04-24T02:10:56.173Z,101576
2017-04-24T02:11:56.502Z,101579
2017-04-24T02:12:59.170Z,101572
2017-04-24T02:13:59.683Z,101573
2017-04-24T02:15:04.815Z,101573
2017-04-24T02:16:07.871Z,101581
2017-04-24T02:17:10.477Z,101575
2017-04-24T02:18:12.951Z,101571
2017-04-24T02:19:13.430Z,101563
2017-04-24T02:20:15.052Z,101567
2017-04-24T02:21:18.028Z,101568
2017-04-24T02:22:18.558Z,101564
2017-04-24T02:23:21.375Z,101565
2017-04-24T02:24:24.627Z,101557
2017-04-24T02:25:28.065Z,101562
2017-04-24T02:26:32.423Z,101555
2017-04-24T02:27:34.098Z,101550
2017-04-24T02:28:35.898Z,101553
2017-04-24T02:29:37.375Z,101553
2017-04-24T02:30:39.976Z,101547
2017-04-24T02:31:48.145Z,101547
2017-04-24T02:32:50.693Z,101542
2017-04-24T02:33:51.344Z,101539
2017-04-24T02:34:52.616Z,101537
2017-04-24T02:35:53.975Z,101540
2017-04-24T02:36:55.242Z,101532
2017-04-24T02:37:56.021Z,101535
2017-04-24T02:38:58.148Z,101540
2017-04-24T02:39:59.959Z,101528
2017-04-24T02:41:01.397Z,101525
2017-04-24T02:42:02.110Z,101528
2017-04-24T02:43:02.743Z,101528
2017-04-24T02:44:05.995Z,101525
2017-04-24T02:45:09.653Z,101521
2017-04-24T02:46:09.868Z,101526
2017-04-24T02:47:13.646Z,101528
2017-04-24T02:48:15.575Z,101529
2017-04-24T02:49:18.056Z,101512
2017-04-24T02:50:20.941Z,101516
2017-04-24T02:51:22.390Z,101520
2017-04-24T02:52:24.743Z,101514
2017-04-24T02:53:27.471Z,101512
2017-04-24T02:54:28.926Z,101511
2017-04-24T02:55:30.092Z,101512
2017-04-24T02:56:31.672Z,101502
2017-04-24T02:57:32.536Z,101505
2017-04-24T02:58:33.839Z,101500
2017-04-24T02:59:35.491Z,101506
2017-04-24T03:00:37.935Z,101504
2017-04-24T03:01:43.902Z,101494
2017-04-24T03:02:48.935Z,101499
2017-04-24T03:03:51.043Z,101487
2017-04-24T03:04:52.071Z,101487
2017-04-24T03:05:54.210Z,101487
2017-04-24T03:06:59.600Z,101492
2017-04-24T03:08:02.075Z,101491
2017-04-24T03:09:12.769Z,101487
2017-04-24T03:10:14.120Z,101485
2017-04-24T03:11:18.139Z,101488
2017-04-24T03:12:18.632Z,101475
2017-04-24T03:13:24.854Z,101476
2017-04-24T03:14:26.932Z,101474
2017-04-24T03:15:31.039Z,101474
2017-04-24T03:16:35.460Z,101476
2017-04-24T03:17:40.056Z,101467
2017-04-24T03:18:43.815Z,101468
2017-04-24T03:19:49.822Z,101468
2017-04-24T03:20:58.455Z,101462
2017-04-24T03:22:02.303Z,101460
2017-04-24T03:23:12.253Z,101463
2017-04-24T03:24:13.408Z,101464
2017-04-24T03:25:17.114Z,101459
2017-04-24T03:26:18.736Z,101459
2017-04-24T03:27:29.927Z,101448
2017-04-24T03:28:31.413Z,101447
2017-04-24T03:29:33.595Z,101440
2017-04-24T03:30:44.736Z,101445
2017-04-24T03:31:49.043Z,101432
2017-04-24T03:32:55.102Z,101441
2017-04-24T03:33:57.249Z,101424
2017-04-24T03:34:57.591Z,101432
2017-04-24T03:36:00.818Z,101431
2017-04-24T03:37:06.691Z,101435
2017-04-24T03:38:11.267Z,101421
2017-04-24T03:39:28.673Z,101429
2017-04-24T03:40:34.618Z,101424
2017-04-24T03:41:39.930Z,101425
2017-04-24T03:42:48.216Z,101418
2017-04-24T03:43:49.738Z,101395
2017-04-24T03:45:02.141Z,101411
2017-04-24T03:46:08.054Z,101400
2017-04-24T03:47:24.958Z,101403
2017-04-24T03:48:33.005Z,101394
2017-04-24T03:49:48.032Z,101395
2017-04-24T03:50:54.865Z,101390
2017-04-24T03:52:06.870Z,101389
2017-04-24T03:53:25.010Z,101392
2017-04-24T03:54:26.671Z,101394
2017-04-24T03:55:32.183Z,101387
2017-04-24T03:56:40.815Z,101388
2017-04-24T03:57:55.867Z,101390
2017-04-24T03:59:00.574Z,101380
2017-04-24T04:00:03.004Z,101380
2017-04-24T04:01:11.561Z,101387
2017-04-24T04:02:15.558Z,101386
2017-04-24T04:03:24.577Z,101387
2017-04-24T04:04:25.511Z,101385
2017-04-24T04:05:36.509Z,101373
2017-04-24T04:07:14.246Z,101381
2017-04-24T04:08:14.752Z,101378
2017-04-24T04:09:31.618Z,101369
2017-04-24T04:10:36.230Z,101379
2017-04-24T04:11:39.406Z,101373
2017-04-24T04:12:45.415Z,101367
2017-04-24T04:13:49.490Z,101368
2017-04-24T04:14:57.482Z,101361
2017-04-24T04:16:03.406Z,101361
2017-04-24T04:17:10.129Z,101359
2017-04-24T04:18:13.656Z,101355
2017-04-24T04:19:16.326Z,101346
2017-04-24T04:20:17.677Z,101350
2017-04-24T04:21:19.787Z,101347
2017-04-24T04:22:20.145Z,101348
2017-04-24T04:23:32.862Z,101344
2017-04-24T04:24:39.343Z,101351
2017-04-24T04:25:44.973Z,101342
2017-04-24T04:26:49.550Z,101356
2017-04-24T04:27:52.324Z,101344
2017-04-24T04:29:04.055Z,101333
2017-04-24T04:30:04.637Z,101337
2017-04-24T04:31:09.845Z,101337
2017-04-24T04:32:17.523Z,101339
2017-04-24T04:33:21.618Z,101331
2017-04-24T04:37:43.093Z,101320
2017-04-24T04:38:53.075Z,101320
2017-04-24T04:39:56.040Z,101311
2017-04-24T04:40:56.895Z,101318
2017-04-24T04:41:59.657Z,101322
2017-04-24T04:43:05.995Z,101312
2017-04-24T04:44:07.576Z,101315
2017-04-24T04:45:11.486Z,101311
2017-04-24T04:46:12.188Z,101321
2017-04-24T04:47:16.136Z,101312
2017-04-24T04:48:21.444Z,101312
2017-04-24T04:49:24.018Z,101311
2017-04-24T04:50:24.412Z,101304
2017-04-24T04:51:31.291Z,101297
2017-04-24T04:52:33.020Z,101304
2017-04-24T04:53:36.035Z,101306
2017-04-24T04:54:38.758Z,101297
2017-04-24T04:55:42.593Z,101298
2017-04-24T04:56:48.717Z,101298
2017-04-24T04:57:55.584Z,101293
2017-04-24T04:59:06.990Z,101297
2017-04-24T05:00:07.409Z,101287
2017-04-24T05:01:10.335Z,101285
2017-04-24T05:02:14.546Z,101295
2017-04-24T05:03:21.143Z,101292
2017-04-24T05:04:21.485Z,101281
2017-04-24T05:05:27.589Z,101290
2017-04-24T05:06:30.082Z,101280
2017-04-24T05:07:35.463Z,101281
2017-04-24T05:08:54.845Z,101285
2017-04-24T05:09:55.111Z,101281
2017-04-24T05:11:03.179Z,101278
2017-04-24T05:12:04.614Z,101271
2017-04-24T05:13:22.915Z,101271
2017-04-24T05:14:25.597Z,101275
2017-04-24T05:15:28.051Z,101270
2017-04-24T05:16:38.573Z,101270
2017-04-24T05:17:39.338Z,101273
2017-04-24T05:18:42.054Z,101266
2017-04-24T05:19:50.936Z,101267
2017-04-24T05:20:58.034Z,101262
2017-04-24T05:21:59.090Z,101266
2017-04-24T05:23:02.836Z,101254
2017-04-24T05:24:03.393Z,101261
2017-04-24T05:25:11.905Z,101262
2017-04-24T05:26:14.066Z,101267
2017-04-24T05:27:16.747Z,101257
2017-04-24T05:28:18.409Z,101253
2017-04-24T05:29:29.578Z,101248
2017-04-24T05:30:40.220Z,101257
2017-04-24T05:31:46.127Z,101256
2017-04-24T05:32:56.580Z,101245
2017-04-24T05:33:56.995Z,101236
2017-04-24T05:34:58.025Z,101243
2017-04-24T05:36:03.374Z,101238
2017-04-24T05:37:08.855Z,101244
2017-04-24T05:38:09.092Z,101238
2017-04-24T05:39:17.322Z,101229
2017-04-24T05:40:23.951Z,101234
2017-04-24T05:41:31.540Z,101223
2017-04-24T05:42:32.215Z,101223
2017-04-24T05:43:34.743Z,101227
2017-04-24T05:44:37.625Z,101227
2017-04-24T05:45:44.660Z,101230
2017-04-24T05:46:47.066Z,101225
2017-04-24T05:47:55.009Z,101232
2017-04-24T05:49:05.481Z,101229
2017-04-24T05:50:07.728Z,101229
2017-04-24T05:51:14.302Z,101222
2017-04-24T05:52:15.683Z,101228
2017-04-24T05:53:50.136Z,101218
2017-04-24T05:55:02.740Z,101219
2017-04-24T05:56:03.886Z,101221
2017-04-24T05:57:09.536Z,101214
2017-04-24T05:58:09.912Z,101210
2017-04-24T05:59:18.981Z,101223
2017-04-24T06:00:34.376Z,101214
2017-04-24T06:01:40.670Z,101208
2017-04-24T06:02:47.706Z,101200
2017-04-24T06:03:53.319Z,101200
2017-04-24T06:05:05.739Z,101201
2017-04-24T06:06:07.435Z,101192
2017-04-24T06:07:10.978Z,101190
2017-04-24T06:08:11.282Z,101191
2017-04-24T06:09:21.525Z,101186
2017-04-24T06:10:33.676Z,101192
2017-04-24T06:11:46.906Z,101186
2017-04-24T06:12:52.670Z,101178
2017-04-24T06:13:53.683Z,101181
2017-04-24T06:15:15.039Z,101165
2017-04-24T06:16:21.130Z,101186
2017-04-24T06:17:27.659Z,101179
2017-04-24T06:18:47.225Z,101177
2017-04-24T06:19:54.166Z,101179
2017-04-24T06:20:56.526Z,101168
2017-04-24T06:22:06.856Z,101169
2017-04-24T06:23:08.368Z,101166
2017-04-24T06:24:10.991Z,101177
2017-04-24T06:26:40.710Z,101174
2017-04-24T06:27:45.711Z,101159
2017-04-24T06:28:47.455Z,101163
2017-04-24T06:29:54.448Z,101163
2017-04-24T06:31:08.574Z,101156
2017-04-24T06:32:13.646Z,101164
2017-04-24T06:33:18.178Z,101161
2017-04-24T06:34:22.736Z,101158
2017-04-24T06:35:31.126Z,101147
2017-04-24T06:36:42.647Z,101164
2017-04-24T06:37:48.265Z,101146
2017-04-24T06:38:54.935Z,101144
2017-04-24T06:40:03.513Z,101144
2017-04-24T06:41:07.521Z,101140
2017-04-24T06:42:14.365Z,101148
2017-04-24T06:43:23.295Z,101149
2017-04-24T06:44:25.427Z,101141
2017-04-24T06:45:31.247Z,101146
2017-04-24T06:46:32.398Z,101122
2017-04-24T06:47:41.271Z,101128
2017-04-24T06:48:49.464Z,101143
2017-04-24T06:49:52.024Z,101138
2017-04-24T06:51:03.707Z,101125
2017-04-24T06:52:06.996Z,101127
2017-04-24T06:53:18.383Z,101128
2017-04-24T06:54:29.348Z,101134
2017-04-24T06:55:43.798Z,101129
2017-04-24T06:56:59.434Z,101123
2017-04-24T06:58:12.780Z,101125
2017-04-24T06:59:18.502Z,101118
2017-04-24T07:00:30.085Z,101114
2017-04-24T07:01:42.046Z,101117
2017-04-24T07:02:52.455Z,101108
2017-04-24T07:03:57.655Z,101118
2017-04-24T07:05:06.564Z,101119
2017-04-24T07:06:18.834Z,101107
2017-04-24T07:07:28.691Z,101111
2017-04-24T07:08:33.661Z,101108
2017-04-24T07:10:55.420Z,101099
2017-04-24T07:12:00.882Z,101102
2017-04-24T07:26:24.847Z,101095
2017-04-24T07:27:34.774Z,101084
2017-04-24T07:28:35.794Z,101080
2017-04-24T07:29:38.267Z,101086
2017-04-24T07:30:42.172Z,101093
2017-04-24T07:31:54.028Z,101079
2017-04-24T07:32:59.009Z,101088
2017-04-24T07:34:01.290Z,101076
2017-04-24T07:35:05.090Z,101068
2017-04-24T07:36:06.175Z,101065
2017-04-24T07:37:08.642Z,101065
2017-04-24T07:38:09.938Z,101073
2017-04-24T07:39:17.175Z,101062
2017-04-24T07:40:20.900Z,101065
2017-04-24T07:41:25.363Z,101053
2017-04-24T07:42:27.344Z,101051
2017-04-24T07:43:31.545Z,101047
2017-04-24T07:44:31.928Z,101045
2017-04-24T07:45:32.852Z,101041
2017-04-24T07:46:36.921Z,101050
2017-04-24T07:47:37.176Z,101048
2017-04-24T07:48:40.840Z,101038
2017-04-24T07:49:44.873Z,101040
2017-04-24T07:50:49.684Z,101041
2017-04-24T07:51:54.928Z,101034
2017-04-24T07:53:04.313Z,101028
2017-04-24T07:54:04.792Z,101021
2017-04-24T07:55:09.308Z,101036
2017-04-24T07:56:11.336Z,101032
2017-04-24T07:57:11.723Z,101045
2017-04-24T07:58:12.141Z,101034
2017-04-24T07:59:13.654Z,101024
2017-04-24T08:00:14.534Z,101033
2017-04-24T08:01:22.069Z,101035
2017-04-24T08:02:25.113Z,101028
2017-04-24T08:03:25.485Z,101024
2017-04-24T08:04:26.090Z,101017
2017-04-24T08:05:26.405Z,101034
2017-04-24T08:06:26.621Z,101025
2017-04-24T08:07:27.152Z,101012
2017-04-24T08:08:28.560Z,101019
2017-04-24T08:09:31.525Z,101015
2017-04-24T08:10:31.936Z,101024
2017-04-24T08:11:32.253Z,101019
2017-04-24T08:12:35.438Z,101010
2017-04-24T08:13:35.797Z,101011
2017-04-24T08:14:38.335Z,101017
2017-04-24T08:15:38.686Z,101009
2017-04-24T08:16:43.204Z,101007
2017-04-24T08:17:49.073Z,101009
2017-04-24T08:18:57.472Z,101008
2017-04-24T08:19:57.816Z,101015
2017-04-24T08:20:58.028Z,101008
2017-04-24T08:21:58.436Z,100997
2017-04-24T08:22:58.960Z,100998
2017-04-24T08:23:59.261Z,101015
2017-04-24T08:24:59.714Z,101018
2017-04-24T08:26:01.768Z,101003
2017-04-24T08:27:01.897Z,100999
2017-04-24T08:28:02.027Z,101000
2017-04-24T08:29:02.893Z,100998
2017-04-24T08:30:03.064Z,101003
2017-04-24T08:31:03.192Z,100995
2017-04-24T08:32:03.366Z,100987
2017-04-24T08:33:03.528Z,100994
2017-04-24T08:34:03.659Z,100997
2017-04-24T08:35:03.846Z,100999
2017-04-24T08:36:03.925Z,100988
2017-04-24T08:37:04.919Z,100989
2017-04-24T08:38:05.644Z,100981
2017-04-24T08:39:07.297Z,100973
2017-04-24T08:40:07.444Z,100982
2017-04-24T08:41:07.559Z,100972
2017-04-24T08:42:07.655Z,100989
2017-04-24T08:43:07.773Z,100981
2017-04-24T08:44:07.836Z,100980
2017-04-24T08:45:07.942Z,100991
2017-04-24T08:46:08.221Z,100982
2017-04-24T08:47:08.387Z,100990
2017-04-24T08:48:08.528Z,100989
2017-04-24T08:49:09.248Z,100987
2017-04-24T08:50:09.458Z,100981
2017-04-24T08:51:09.640Z,100985
2017-04-24T08:52:09.806Z,100985
2017-04-24T08:53:09.955Z,100985
2017-04-24T08:54:10.085Z,100980
2017-04-24T08:55:10.183Z,100981
2017-04-24T08:56:10.375Z,100971
2017-04-24T08:57:10.563Z,100979
2017-04-24T08:58:10.773Z,100984
2017-04-24T08:59:10.914Z,100973
2017-04-24T09:00:11.220Z,100982
2017-04-24T09:01:11.346Z,100974
2017-04-24T09:02:11.416Z,100966
2017-04-24T09:03:12.666Z,100958
2017-04-24T09:04:12.862Z,100964
2017-04-24T09:05:13.211Z,100968
2017-04-24T09:06:14.502Z,100962
2017-04-24T09:07:14.798Z,100967
2017-04-24T09:08:14.906Z,100961
2017-04-24T09:09:15.552Z,100964
2017-04-24T09:10:16.592Z,100956
2017-04-24T09:11:16.727Z,100958
2017-04-24T09:12:16.839Z,100954
2017-04-24T09:13:17.094Z,100959
2017-04-24T09:14:17.240Z,100958
2017-04-24T09:15:17.544Z,100953
2017-04-24T09:16:24.018Z,100950
2017-04-24T09:17:24.328Z,100958
2017-04-24T09:18:24.459Z,100959
2017-04-24T09:19:24.627Z,100936
2017-04-24T09:20:24.865Z,100946
2017-04-24T09:21:24.970Z,100958
2017-04-24T09:22:25.198Z,100947
2017-04-24T09:23:25.264Z,100941
2017-04-24T09:24:25.363Z,100943
2017-04-24T09:25:25.475Z,100933
2017-04-24T09:26:25.541Z,100948
2017-04-24T09:27:25.833Z,100936
2017-04-24T09:28:25.977Z,100932
2017-04-24T09:29:26.137Z,100937
2017-04-24T09:30:26.292Z,100938
2017-04-24T09:31:27.238Z,100935
2017-04-24T09:32:27.462Z,100916
2017-04-24T09:33:27.649Z,100917
2017-04-24T09:34:28.482Z,100922
2017-04-24T09:35:28.707Z,100934
2017-04-24T09:36:28.859Z,100937
2017-04-24T09:37:28.935Z,100922
2017-04-24T09:38:29.103Z,100926
2017-04-24T09:39:30.179Z,100922
2017-04-24T09:40:30.311Z,100919
2017-04-24T09:41:30.475Z,100912
2017-04-24T09:42:30.633Z,100915
2017-04-24T09:43:30.756Z,100910
2017-04-24T09:44:30.860Z,100898
2017-04-24T09:45:31.010Z,100899
2017-04-24T09:46:31.128Z,100898
2017-04-24T09:47:34.350Z,100891
2017-04-24T09:48:34.770Z,100875
2017-04-24T09:49:34.890Z,100887
2017-04-24T09:50:35.064Z,100875
2017-04-24T09:51:35.214Z,100896
2017-04-24T09:52:35.677Z,100883
2017-04-24T09:53:35.862Z,100887
2017-04-24T09:54:37.218Z,100877
2017-04-24T09:55:37.446Z,100884
2017-04-24T09:56:37.571Z,100881
2017-04-24T09:57:37.812Z,100866
2017-04-24T09:58:38.034Z,100875
2017-04-24T09:59:38.163Z,100879
2017-04-24T10:00:38.336Z,100882
2017-04-24T10:01:38.596Z,100876
2017-04-24T10:02:38.676Z,100876
2017-04-24T10:03:39.568Z,100882
2017-04-24T10:04:39.699Z,100870
2017-04-24T10:05:39.838Z,100883
2017-04-24T10:06:39.982Z,100880
2017-04-24T10:07:40.095Z,100875
2017-04-24T10:08:40.305Z,100873
2017-04-24T10:09:40.388Z,100876
2017-04-24T10:10:40.473Z,100881
2017-04-24T10:11:40.610Z,100877
2017-04-24T10:12:40.749Z,100869
2017-04-24T10:13:40.827Z,100871
2017-04-24T10:14:41.013Z,100862
2017-04-24T10:15:41.872Z,100867
2017-04-24T10:16:42.043Z,100872
2017-04-24T10:17:42.928Z,100872
2017-04-24T10:18:43.175Z,100868
2017-04-24T10:19:43.343Z,100863
2017-04-24T10:20:43.500Z,100864
2017-04-24T10:21:43.608Z,100869
2017-04-24T10:22:44.450Z,100877
2017-04-24T10:23:44.606Z,100868
2017-04-24T10:24:44.695Z,100882
2017-04-24T10:25:44.856Z,100868
2017-04-24T10:26:45.708Z,100877
2017-04-24T10:27:45.832Z,100866
2017-04-24T10:28:45.893Z,100862
2017-04-24T10:29:45.974Z,100860
2017-04-24T10:30:46.266Z,100866
2017-04-24T10:31:46.414Z,100865
2017-04-24T10:32:47.343Z,100863
2017-04-24T10:33:47.395Z,100857
2017-04-24T10:34:47.536Z,100847
2017-04-24T10:35:47.663Z,100854
2017-04-24T10:36:48.562Z,100849
2017-04-24T10:37:48.651Z,100858
2017-04-24T10:38:48.753Z,100867
2017-04-24T10:39:48.808Z,100854
2017-04-24T10:40:49.000Z,100854
2017-04-24T10:41:49.152Z,100863
2017-04-24T10:42:49.276Z,100876
2017-04-24T10:43:50.143Z,100860
2017-04-24T10:44:50.291Z,100852
2017-04-24T10:45:51.164Z,100861
2017-04-24T10:46:51.286Z,100854
2017-04-24T10:47:51.409Z,100848
2017-04-24T10:48:51.537Z,100850
2017-04-24T10:49:51.715Z,100850
2017-04-24T10:50:51.820Z,100858
2017-04-24T10:51:52.819Z,100855
2017-04-24T10:52:53.680Z,100844
2017-04-24T10:53:55.012Z,100859
2017-04-24T10:54:55.175Z,100854
2017-04-24T10:55:56.066Z,100848
2017-04-24T10:56:56.227Z,100830
2017-04-24T10:57:57.604Z,100825
2017-04-24T10:58:57.691Z,100825
2017-04-24T10:59:58.784Z,100844
2017-04-24T11:00:59.020Z,100816
2017-04-24T11:01:59.887Z,100815
2017-04-24T11:03:00.059Z,100820
2017-04-24T11:04:00.261Z,100831
2017-04-24T11:05:01.155Z,100819
2017-04-24T11:06:02.661Z,100821
2017-04-24T11:07:02.866Z,100837
2017-04-24T11:08:03.578Z,100819
2017-04-24T11:09:03.785Z,100816
2017-04-24T11:10:05.006Z,100819
2017-04-24T11:11:06.067Z,100817
2017-04-24T11:12:06.388Z,100834
2017-04-24T11:13:06.600Z,100820
2017-04-24T11:14:06.730Z,100791
2017-04-24T11:15:06.881Z,100807
2017-04-24T11:16:07.119Z,100821
2017-04-24T11:17:07.254Z,100808
2017-04-24T11:18:07.382Z,100822
2017-04-24T11:19:07.548Z,100813
2017-04-24T11:20:07.708Z,100811
2017-04-24T11:21:07.859Z,100809
2017-04-24T11:22:08.074Z,100815
2017-04-24T11:23:08.232Z,100799
2017-04-24T11:24:08.364Z,100808
2017-04-24T11:25:08.607Z,100802
2017-04-24T11:26:08.800Z,100798
2017-04-24T11:27:09.703Z,100815
2017-04-24T11:28:10.004Z,100800
2017-04-24T11:29:10.199Z,100806
2017-04-24T11:30:10.400Z,100804
2017-04-24T11:31:10.586Z,100797
2017-04-24T11:32:11.492Z,100797
2017-04-24T11:33:11.685Z,100798
2017-04-24T11:34:11.866Z,100787
2017-04-24T11:35:12.010Z,100791
2017-04-24T11:36:12.106Z,100802
2017-04-24T11:37:12.246Z,100791
2017-04-24T11:38:12.386Z,100794
2017-04-24T11:39:12.535Z,100788
2017-04-24T11:40:12.689Z,100789
2017-04-24T11:41:12.802Z,100786
2017-04-24T11:42:12.933Z,100774
2017-04-24T11:43:13.124Z,100787
2017-04-24T11:44:13.227Z,100792
2017-04-24T11:45:13.373Z,100779
2017-04-24T11:46:13.592Z,100780
2017-04-24T11:47:13.703Z,100777
2017-04-24T11:48:13.876Z,100782
2017-04-24T11:49:14.076Z,100768
2017-04-24T11:50:14.992Z,100766
2017-04-24T11:51:15.938Z,100775
2017-04-24T11:52:16.103Z,100766
2017-04-24T11:53:16.297Z,100772
2017-04-24T11:54:16.405Z,100773
2017-04-24T11:55:16.506Z,100771
2017-04-24T11:56:16.623Z,100766
2017-04-24T11:57:17.752Z,100761
2017-04-24T11:58:17.892Z,100763
2017-04-24T11:59:17.985Z,100780
2017-04-24T12:00:18.094Z,100769
2017-04-24T12:01:18.371Z,100764
2017-04-24T12:02:18.491Z,100762
2017-04-24T12:03:19.353Z,100748
2017-04-24T12:04:19.442Z,100759
2017-04-24T12:05:19.576Z,100742
2017-04-24T12:06:19.827Z,100767
2017-04-24T12:07:19.957Z,100751
2017-04-24T12:08:20.124Z,100748
2017-04-24T12:09:20.200Z,100754
2017-04-24T12:10:20.331Z,100762
2017-04-24T12:11:20.456Z,100751
2017-04-24T12:12:20.607Z,100758
2017-04-24T12:13:21.483Z,100747
2017-04-24T12:14:21.671Z,100740
2017-04-24T12:15:21.794Z,100754
2017-04-24T12:16:21.959Z,100747
2017-04-24T12:17:22.995Z,100750
2017-04-24T12:18:23.159Z,100752
2017-04-24T12:19:23.263Z,100753
2017-04-24T12:20:23.556Z,100746
2017-04-24T12:21:23.812Z,100756
2017-04-24T12:22:24.026Z,100743
2017-04-24T12:23:24.195Z,100746
2017-04-24T12:24:24.321Z,100742
2017-04-24T12:25:25.224Z,100726
2017-04-24T12:26:25.328Z,100728
2017-04-24T12:27:25.680Z,100732
2017-04-24T12:28:26.541Z,100735
2017-04-24T12:29:26.709Z,100735
2017-04-24T12:30:26.918Z,100726
2017-04-24T12:31:30.097Z,100727
2017-04-24T12:32:36.167Z,100729
2017-04-24T12:33:36.328Z,100733
2017-04-24T12:34:36.473Z,100724
2017-04-24T12:35:37.360Z,100721
2017-04-24T12:36:37.477Z,100736
2017-04-24T12:37:37.626Z,100730
2017-04-24T12:38:38.544Z,100719
2017-04-24T12:39:38.731Z,100723
2017-04-24T12:40:38.934Z,100719
2017-04-24T12:41:39.084Z,100720
2017-04-24T12:42:39.968Z,100717
2017-04-24T12:43:40.097Z,100727
2017-04-24T12:44:40.206Z,100715
2017-04-24T12:45:40.408Z,100719
2017-04-24T12:46:40.592Z,100714
2017-04-24T12:47:40.730Z,100720
2017-04-24T12:48:40.864Z,100714
2017-04-24T12:49:41.811Z,100723
2017-04-24T12:50:41.986Z,100715
2017-04-24T12:51:42.237Z,100716
2017-04-24T12:52:42.474Z,100714
2017-04-24T12:53:42.732Z,100714
2017-04-24T12:54:42.898Z,100712
2017-04-24T12:55:42.990Z,100714
2017-04-24T12:56:43.203Z,100715
2017-04-24T12:57:44.055Z,100705
2017-04-24T12:58:44.165Z,100700
2017-04-24T12:59:44.334Z,100711
2017-04-24T13:00:44.712Z,100696
2017-04-24T13:01:44.870Z,100705
2017-04-24T13:02:44.996Z,100698
2017-04-24T13:03:45.140Z,100702
2017-04-24T13:04:45.298Z,100717
2017-04-24T13:05:45.438Z,100706
2017-04-24T13:06:45.535Z,100706
2017-04-24T13:07:46.394Z,100698
2017-04-24T13:08:46.689Z,100713
2017-04-24T13:09:46.833Z,100703
2017-04-24T13:10:47.034Z,100700
2017-04-24T13:11:47.235Z,100699
2017-04-24T13:12:47.320Z,100689
2017-04-24T13:13:47.434Z,100693
2017-04-24T13:14:48.319Z,100693
2017-04-24T13:15:48.527Z,100683
2017-04-24T13:16:52.050Z,100691
2017-04-24T13:17:52.365Z,100691
2017-04-24T13:18:52.507Z,100688
2017-04-24T13:19:52.679Z,100673
2017-04-24T13:20:52.807Z,100679
2017-04-24T13:21:52.956Z,100678
2017-04-24T13:22:53.807Z,100685
2017-04-24T13:23:53.951Z,100688
2017-04-24T13:24:54.046Z,100695
2017-04-24T13:25:54.283Z,100681
2017-04-24T13:26:56.449Z,100691
2017-04-24T13:27:57.350Z,100689
2017-04-24T13:28:57.588Z,100679
2017-04-24T13:29:57.723Z,100676
2017-04-24T13:30:57.842Z,100685
2017-04-24T13:31:57.964Z,100679
2017-04-24T13:32:58.083Z,100688
2017-04-24T13:33:58.223Z,100680
2017-04-24T13:34:58.390Z,100682
2017-04-24T13:35:58.480Z,100672
2017-04-24T13:36:58.665Z,100678
2017-04-24T13:37:58.897Z,100678
2017-04-24T13:38:59.747Z,100673
2017-04-24T13:39:59.875Z,100676
2017-04-24T13:41:00.189Z,100674
2017-04-24T13:42:00.324Z,100667
2017-04-24T13:43:00.479Z,100671
2017-04-24T13:44:00.695Z,100670
2017-04-24T13:45:00.836Z,100667
2017-04-24T13:46:00.969Z,100672
2017-04-24T13:47:01.186Z,100681
2017-04-24T13:48:01.350Z,100661
2017-04-24T13:49:02.210Z,100663
2017-04-24T13:50:02.539Z,100656
2017-04-24T13:51:02.676Z,100654
2017-04-24T13:52:02.783Z,100673
2017-04-24T13:53:03.420Z,100648
2017-04-24T13:54:03.590Z,100665
2017-04-24T13:55:03.726Z,100661
2017-04-24T13:56:03.852Z,100653
2017-04-24T13:57:03.931Z,100652
2017-04-24T13:58:04.923Z,100655
2017-04-24T13:59:05.045Z,100648
2017-04-24T14:00:06.880Z,100648
2017-04-24T14:01:06.967Z,100642
2017-04-24T14:02:07.202Z,100638
2017-04-24T14:03:07.339Z,100633
2017-04-24T14:04:08.268Z,100637
2017-04-24T14:05:09.190Z,100642
2017-04-24T14:06:09.445Z,100638
2017-04-24T14:07:09.601Z,100641
2017-04-24T14:08:09.863Z,100645
2017-04-24T14:09:10.025Z,100647
2017-04-24T14:10:10.217Z,100661